sensor_id;sensor_type;location;lat;lon;timestamp;temperature;humidity
63017;DHT22;50274;45.640;11.756;2023-10-08T00:01:28;19.50;68.20
63017;DHT22;50274;45.640;11.756;2023-10-08T00:03:54;19.50;68.10
63017;DHT22;50274;45.640;11.756;2023-10-08T00:06:23;19.50;68.10
63017;DHT22;50274;45.640;11.756;2023-10-08T00:08:50;19.50;68.10
63017;DHT22;50274;45.640;11.756;2023-10-08T00:11:17;19.50;68.20
63017;DHT22;50274;45.640;11.756;2023-10-08T00:13:43;19.40;68.20
63017;DHT22;50274;45.640;11.756;2023-10-08T00:16:11;19.40;68.20
63017;DHT22;50274;45.640;11.756;2023-10-08T00:18:41;19.40;68.30
63017;DHT22;50274;45.640;11.756;2023-10-08T00:21:14;19.40;68.30
63017;DHT22;50274;45.640;11.756;2023-10-08T00:23:40;19.30;68.40
63017;DHT22;50274;45.640;11.756;2023-10-08T00:26:21;19.30;68.50
63017;DHT22;50274;45.640;11.756;2023-10-08T00:28:56;19.20;68.50
63017;DHT22;50274;45.640;11.756;2023-10-08T00:31:23;19.20;68.60
63017;DHT22;50274;45.640;11.756;2023-10-08T00:34:19;19.20;68.60
63017;DHT22;50274;45.640;11.756;2023-10-08T00:36:47;19.20;68.50
63017;DHT22;50274;45.640;11.756;2023-10-08T00:39:13;19.20;68.40
63017;DHT22;50274;45.640;11.756;2023-10-08T00:41:41;19.20;68.50
63017;DHT22;50274;45.640;11.756;2023-10-08T00:44:12;19.20;68.50
63017;DHT22;50274;45.640;11.756;2023-10-08T00:46:48;19.20;68.50
63017;DHT22;50274;45.640;11.756;2023-10-08T00:49:25;19.10;68.50
63017;DHT22;50274;45.640;11.756;2023-10-08T00:52:14;19.10;68.70
63017;DHT22;50274;45.640;11.756;2023-10-08T00:54:42;19.00;68.70
63017;DHT22;50274;45.640;11.756;2023-10-08T00:57:25;19.00;68.80
63017;DHT22;50274;45.640;11.756;2023-10-08T00:59:51;19.00;68.70
63017;DHT22;50274;45.640;11.756;2023-10-08T01:02:28;19.00;68.70
63017;DHT22;50274;45.640;11.756;2023-10-08T01:05:20;19.00;68.70
63017;DHT22;50274;45.640;11.756;2023-10-08T01:08:02;19.00;68.70
63017;DHT22;50274;45.640;11.756;2023-10-08T01:10:31;18.90;68.70
63017;DHT22;50274;45.640;11.756;2023-10-08T01:12:58;18.90;68.80
63017;DHT22;50274;45.640;11.756;2023-10-08T01:15:26;18.80;68.90
63017;DHT22;50274;45.640;11.756;2023-10-08T01:17:56;18.80;68.90
63017;DHT22;50274;45.640;11.756;2023-10-08T01:20:27;18.80;69.00
63017;DHT22;50274;45.640;11.756;2023-10-08T01:23:17;18.80;69.00
63017;DHT22;50274;45.640;11.756;2023-10-08T01:25:48;18.70;69.00
63017;DHT22;50274;45.640;11.756;2023-10-08T01:28:20;18.80;69.00
63017;DHT22;50274;45.640;11.756;2023-10-08T01:30:57;18.80;69.00
63017;DHT22;50274;45.640;11.756;2023-10-08T01:33:26;18.70;69.00
63017;DHT22;50274;45.640;11.756;2023-10-08T01:36:03;18.70;69.00
63017;DHT22;50274;45.640;11.756;2023-10-08T01:38:31;18.70;69.10
63017;DHT22;50274;45.640;11.756;2023-10-08T01:40:58;18.70;69.10
63017;DHT22;50274;45.640;11.756;2023-10-08T01:43:29;18.70;69.20
63017;DHT22;50274;45.640;11.756;2023-10-08T01:45:56;18.60;69.30
63017;DHT22;50274;45.640;11.756;2023-10-08T01:48:21;18.70;69.30
63017;DHT22;50274;45.640;11.756;2023-10-08T01:50:57;18.70;69.30
63017;DHT22;50274;45.640;11.756;2023-10-08T01:53:29;18.70;69.30
63017;DHT22;50274;45.640;11.756;2023-10-08T01:55:57;18.60;69.30
63017;DHT22;50274;45.640;11.756;2023-10-08T01:58:24;18.50;69.40
63017;DHT22;50274;45.640;11.756;2023-10-08T02:00:50;18.60;69.50
63017;DHT22;50274;45.640;11.756;2023-10-08T02:03:17;18.50;69.50
63017;DHT22;50274;45.640;11.756;2023-10-08T02:05:47;18.50;69.50
63017;DHT22;50274;45.640;11.756;2023-10-08T02:08:13;18.50;69.50
63017;DHT22;50274;45.640;11.756;2023-10-08T02:10:42;18.60;69.50
63017;DHT22;50274;45.640;11.756;2023-10-08T02:13:09;18.50;69.40
63017;DHT22;50274;45.640;11.756;2023-10-08T02:15:36;18.50;69.30
63017;DHT22;50274;45.640;11.756;2023-10-08T02:18:03;18.60;69.20
63017;DHT22;50274;45.640;11.756;2023-10-08T02:20:30;18.50;69.20
63017;DHT22;50274;45.640;11.756;2023-10-08T02:22:56;18.50;69.30
63017;DHT22;50274;45.640;11.756;2023-10-08T02:25:21;18.40;69.40
63017;DHT22;50274;45.640;11.756;2023-10-08T02:27:49;18.40;69.30
63017;DHT22;50274;45.640;11.756;2023-10-08T02:30:14;18.40;69.30
63017;DHT22;50274;45.640;11.756;2023-10-08T02:32:40;18.40;69.30
63017;DHT22;50274;45.640;11.756;2023-10-08T02:35:09;18.40;69.30
63017;DHT22;50274;45.640;11.756;2023-10-08T02:37:39;18.30;69.30
63017;DHT22;50274;45.640;11.756;2023-10-08T02:40:11;18.40;69.30
63017;DHT22;50274;45.640;11.756;2023-10-08T02:42:51;18.30;69.40
63017;DHT22;50274;45.640;11.756;2023-10-08T02:45:18;18.30;69.40
63017;DHT22;50274;45.640;11.756;2023-10-08T02:47:44;18.20;69.40
63017;DHT22;50274;45.640;11.756;2023-10-08T02:50:12;18.20;69.50
63017;DHT22;50274;45.640;11.756;2023-10-08T02:52:43;18.20;69.50
63017;DHT22;50274;45.640;11.756;2023-10-08T02:55:12;18.20;69.50
63017;DHT22;50274;45.640;11.756;2023-10-08T02:57:58;18.20;69.40
63017;DHT22;50274;45.640;11.756;2023-10-08T03:00:24;18.20;69.40
63017;DHT22;50274;45.640;11.756;2023-10-08T03:02:57;18.10;69.40
63017;DHT22;50274;45.640;11.756;2023-10-08T03:05:26;18.10;69.40
63017;DHT22;50274;45.640;11.756;2023-10-08T03:07:57;18.10;69.50
63017;DHT22;50274;45.640;11.756;2023-10-08T03:10:24;18.10;69.50
63017;DHT22;50274;45.640;11.756;2023-10-08T03:12:57;18.10;69.70
63017;DHT22;50274;45.640;11.756;2023-10-08T03:15:30;18.00;69.70
63017;DHT22;50274;45.640;11.756;2023-10-08T03:18:00;18.00;69.80
63017;DHT22;50274;45.640;11.756;2023-10-08T03:20:37;18.00;69.80
63017;DHT22;50274;45.640;11.756;2023-10-08T03:23:07;18.00;69.80
63017;DHT22;50274;45.640;11.756;2023-10-08T03:25:55;17.90;69.80
63017;DHT22;50274;45.640;11.756;2023-10-08T03:28:27;18.00;69.80
63017;DHT22;50274;45.640;11.756;2023-10-08T03:30:54;18.00;69.80
63017;DHT22;50274;45.640;11.756;2023-10-08T03:33:36;18.00;69.80
63017;DHT22;50274;45.640;11.756;2023-10-08T03:36:07;17.90;69.80
63017;DHT22;50274;45.640;11.756;2023-10-08T03:38:52;18.00;69.80
63017;DHT22;50274;45.640;11.756;2023-10-08T03:41:22;17.90;69.80
63017;DHT22;50274;45.640;11.756;2023-10-08T03:43:54;17.90;69.80
63017;DHT22;50274;45.640;11.756;2023-10-08T03:46:32;17.90;69.90
63017;DHT22;50274;45.640;11.756;2023-10-08T03:49:05;17.80;69.90
63017;DHT22;50274;45.640;11.756;2023-10-08T03:51:42;17.80;70.00
63017;DHT22;50274;45.640;11.756;2023-10-08T03:54:08;17.80;70.00
63017;DHT22;50274;45.640;11.756;2023-10-08T03:56:40;17.80;70.00
63017;DHT22;50274;45.640;11.756;2023-10-08T03:59:14;17.80;70.00
63017;DHT22;50274;45.640;11.756;2023-10-08T04:01:46;17.80;70.10
63017;DHT22;50274;45.640;11.756;2023-10-08T04:04:15;17.80;70.00
63017;DHT22;50274;45.640;11.756;2023-10-08T04:06:41;17.80;70.00
63017;DHT22;50274;45.640;11.756;2023-10-08T04:09:17;17.70;70.00
63017;DHT22;50274;45.640;11.756;2023-10-08T04:11:50;17.70;70.10
63017;DHT22;50274;45.640;11.756;2023-10-08T04:14:18;17.70;70.20
63017;DHT22;50274;45.640;11.756;2023-10-08T04:16:44;17.70;70.00
63017;DHT22;50274;45.640;11.756;2023-10-08T04:19:11;17.60;70.10
63017;DHT22;50274;45.640;11.756;2023-10-08T04:21:37;17.60;70.10
63017;DHT22;50274;45.640;11.756;2023-10-08T04:24:05;17.60;70.10
63017;DHT22;50274;45.640;11.756;2023-10-08T04:26:32;17.60;70.20
63017;DHT22;50274;45.640;11.756;2023-10-08T04:28:59;17.60;70.20
63017;DHT22;50274;45.640;11.756;2023-10-08T04:31:32;17.60;70.20
63017;DHT22;50274;45.640;11.756;2023-10-08T04:34:09;17.50;70.20
63017;DHT22;50274;45.640;11.756;2023-10-08T04:36:49;17.50;70.30
63017;DHT22;50274;45.640;11.756;2023-10-08T04:39:20;17.50;70.30
63017;DHT22;50274;45.640;11.756;2023-10-08T04:42:13;17.50;70.30
63017;DHT22;50274;45.640;11.756;2023-10-08T04:44:40;17.50;70.20
63017;DHT22;50274;45.640;11.756;2023-10-08T04:47:09;17.40;70.30
63017;DHT22;50274;45.640;11.756;2023-10-08T04:49:53;17.40;70.40
63017;DHT22;50274;45.640;11.756;2023-10-08T04:52:19;17.30;70.40
63017;DHT22;50274;45.640;11.756;2023-10-08T04:54:45;17.30;70.60
63017;DHT22;50274;45.640;11.756;2023-10-08T04:57:18;17.30;70.60
63017;DHT22;50274;45.640;11.756;2023-10-08T04:59:47;17.30;70.60
63017;DHT22;50274;45.640;11.756;2023-10-08T05:02:16;17.30;70.60
63017;DHT22;50274;45.640;11.756;2023-10-08T05:04:45;17.30;70.60
63017;DHT22;50274;45.640;11.756;2023-10-08T05:07:20;17.30;70.60
63017;DHT22;50274;45.640;11.756;2023-10-08T05:09:48;17.20;70.70
63017;DHT22;50274;45.640;11.756;2023-10-08T05:12:28;17.20;70.70
63017;DHT22;50274;45.640;11.756;2023-10-08T05:15:06;17.20;70.80
63017;DHT22;50274;45.640;11.756;2023-10-08T05:17:39;17.20;70.80
63017;DHT22;50274;45.640;11.756;2023-10-08T05:20:17;17.20;70.90
63017;DHT22;50274;45.640;11.756;2023-10-08T05:23:14;17.20;70.90
63017;DHT22;50274;45.640;11.756;2023-10-08T05:25:56;17.30;70.80
63017;DHT22;50274;45.640;11.756;2023-10-08T05:28:38;17.30;70.80
63017;DHT22;50274;45.640;11.756;2023-10-08T05:31:22;17.30;70.70
63017;DHT22;50274;45.640;11.756;2023-10-08T05:34:07;17.30;70.70
63017;DHT22;50274;45.640;11.756;2023-10-08T05:36:51;17.30;70.70
63017;DHT22;50274;45.640;11.756;2023-10-08T05:39:26;17.30;70.70
63017;DHT22;50274;45.640;11.756;2023-10-08T05:41:57;17.30;70.70
63017;DHT22;50274;45.640;11.756;2023-10-08T05:44:43;17.30;70.80
63017;DHT22;50274;45.640;11.756;2023-10-08T05:47:32;17.40;70.70
63017;DHT22;50274;45.640;11.756;2023-10-08T05:49:59;17.40;70.70
63017;DHT22;50274;45.640;11.756;2023-10-08T05:52:44;17.40;70.70
63017;DHT22;50274;45.640;11.756;2023-10-08T05:55:18;17.50;70.60
63017;DHT22;50274;45.640;11.756;2023-10-08T05:57:55;17.50;70.70
63017;DHT22;50274;45.640;11.756;2023-10-08T06:00:44;17.50;70.70
63017;DHT22;50274;45.640;11.756;2023-10-08T06:03:16;17.50;70.70
63017;DHT22;50274;45.640;11.756;2023-10-08T06:06:04;17.60;70.70
63017;DHT22;50274;45.640;11.756;2023-10-08T06:08:40;17.60;70.70
63017;DHT22;50274;45.640;11.756;2023-10-08T06:11:18;17.60;70.80
63017;DHT22;50274;45.640;11.756;2023-10-08T06:14:10;17.60;70.80
63017;DHT22;50274;45.640;11.756;2023-10-08T06:16:43;17.70;70.90
63017;DHT22;50274;45.640;11.756;2023-10-08T06:19:13;17.70;71.00
63017;DHT22;50274;45.640;11.756;2023-10-08T06:21:42;17.70;71.00
63017;DHT22;50274;45.640;11.756;2023-10-08T06:24:09;17.80;71.00
63017;DHT22;50274;45.640;11.756;2023-10-08T06:26:39;17.80;71.10
63017;DHT22;50274;45.640;11.756;2023-10-08T06:29:12;17.80;71.20
63017;DHT22;50274;45.640;11.756;2023-10-08T06:31:45;17.90;71.30
63017;DHT22;50274;45.640;11.756;2023-10-08T06:34:22;17.90;71.40
63017;DHT22;50274;45.640;11.756;2023-10-08T06:36:50;17.90;71.50
63017;DHT22;50274;45.640;11.756;2023-10-08T06:39:21;18.00;71.60
63017;DHT22;50274;45.640;11.756;2023-10-08T06:41:52;18.00;71.60
63017;DHT22;50274;45.640;11.756;2023-10-08T06:44:19;18.00;71.60
63017;DHT22;50274;45.640;11.756;2023-10-08T06:46:45;18.10;71.60
63017;DHT22;50274;45.640;11.756;2023-10-08T06:49:11;18.10;71.80
63017;DHT22;50274;45.640;11.756;2023-10-08T06:51:38;18.20;72.00
63017;DHT22;50274;45.640;11.756;2023-10-08T06:54:04;18.20;72.00
63017;DHT22;50274;45.640;11.756;2023-10-08T06:56:30;18.20;72.00
63017;DHT22;50274;45.640;11.756;2023-10-08T06:58:58;18.30;72.10
63017;DHT22;50274;45.640;11.756;2023-10-08T07:01:25;18.30;72.00
63017;DHT22;50274;45.640;11.756;2023-10-08T07:03:54;18.30;72.00
63017;DHT22;50274;45.640;11.756;2023-10-08T07:06:29;18.40;72.10
63017;DHT22;50274;45.640;11.756;2023-10-08T07:09:00;18.40;72.10
63017;DHT22;50274;45.640;11.756;2023-10-08T07:11:33;18.40;72.20
63017;DHT22;50274;45.640;11.756;2023-10-08T07:14:05;18.40;72.10
63017;DHT22;50274;45.640;11.756;2023-10-08T07:16:34;18.50;72.10
63017;DHT22;50274;45.640;11.756;2023-10-08T07:19:00;18.50;72.00
63017;DHT22;50274;45.640;11.756;2023-10-08T07:21:41;18.60;72.00
63017;DHT22;50274;45.640;11.756;2023-10-08T07:24:16;18.70;72.00
63017;DHT22;50274;45.640;11.756;2023-10-08T07:26:43;18.80;72.00
63017;DHT22;50274;45.640;11.756;2023-10-08T07:29:16;18.90;72.00
63017;DHT22;50274;45.640;11.756;2023-10-08T07:31:43;19.00;72.00
63017;DHT22;50274;45.640;11.756;2023-10-08T07:34:15;19.10;71.90
63017;DHT22;50274;45.640;11.756;2023-10-08T07:36:42;19.20;71.60
63017;DHT22;50274;45.640;11.756;2023-10-08T07:39:09;19.30;71.70
63017;DHT22;50274;45.640;11.756;2023-10-08T07:41:49;19.40;71.60
63017;DHT22;50274;45.640;11.756;2023-10-08T07:44:15;19.60;71.50
63017;DHT22;50274;45.640;11.756;2023-10-08T07:46:41;19.60;71.20
63017;DHT22;50274;45.640;11.756;2023-10-08T07:49:07;19.70;70.90
63017;DHT22;50274;45.640;11.756;2023-10-08T07:51:36;19.80;70.60
63017;DHT22;50274;45.640;11.756;2023-10-08T07:54:03;19.90;70.50
63017;DHT22;50274;45.640;11.756;2023-10-08T07:56:28;20.10;70.40
63017;DHT22;50274;45.640;11.756;2023-10-08T07:58:55;20.20;70.10
63017;DHT22;50274;45.640;11.756;2023-10-08T08:01:23;20.30;69.80
63017;DHT22;50274;45.640;11.756;2023-10-08T08:03:50;20.40;69.40
63017;DHT22;50274;45.640;11.756;2023-10-08T08:06:17;20.50;69.10
63017;DHT22;50274;45.640;11.756;2023-10-08T08:08:43;20.60;68.80
63017;DHT22;50274;45.640;11.756;2023-10-08T08:11:10;20.70;68.60
63017;DHT22;50274;45.640;11.756;2023-10-08T08:13:42;20.80;68.30
63017;DHT22;50274;45.640;11.756;2023-10-08T08:16:09;20.90;67.90
63017;DHT22;50274;45.640;11.756;2023-10-08T08:18:46;21.00;67.70
63017;DHT22;50274;45.640;11.756;2023-10-08T08:21:13;21.10;67.30
63017;DHT22;50274;45.640;11.756;2023-10-08T08:23:43;21.20;67.10
63017;DHT22;50274;45.640;11.756;2023-10-08T08:26:17;21.20;66.70
63017;DHT22;50274;45.640;11.756;2023-10-08T08:28:59;21.40;66.10
63017;DHT22;50274;45.640;11.756;2023-10-08T08:31:30;21.50;65.90
63017;DHT22;50274;45.640;11.756;2023-10-08T08:33:57;21.60;65.30
63017;DHT22;50274;45.640;11.756;2023-10-08T08:36:29;21.60;65.00
63017;DHT22;50274;45.640;11.756;2023-10-08T08:38:55;21.70;63.90
63017;DHT22;50274;45.640;11.756;2023-10-08T08:41:21;21.80;63.80
63017;DHT22;50274;45.640;11.756;2023-10-08T08:43:50;21.90;63.40
63017;DHT22;50274;45.640;11.756;2023-10-08T08:46:33;22.00;63.30
63017;DHT22;50274;45.640;11.756;2023-10-08T08:49:05;22.20;63.20
63017;DHT22;50274;45.640;11.756;2023-10-08T08:51:34;22.30;63.00
63017;DHT22;50274;45.640;11.756;2023-10-08T08:54:01;22.40;62.40
63017;DHT22;50274;45.640;11.756;2023-10-08T08:56:39;22.50;62.20
63017;DHT22;50274;45.640;11.756;2023-10-08T08:59:06;22.60;61.70
63017;DHT22;50274;45.640;11.756;2023-10-08T09:01:32;22.80;61.40
63017;DHT22;50274;45.640;11.756;2023-10-08T09:03:59;22.90;61.10
63017;DHT22;50274;45.640;11.756;2023-10-08T09:06:27;23.00;61.00
63017;DHT22;50274;45.640;11.756;2023-10-08T09:08:53;23.10;61.00
63017;DHT22;50274;45.640;11.756;2023-10-08T09:11:21;23.20;60.30
63017;DHT22;50274;45.640;11.756;2023-10-08T09:13:47;23.30;59.80
63017;DHT22;50274;45.640;11.756;2023-10-08T09:16:14;23.40;59.40
63017;DHT22;50274;45.640;11.756;2023-10-08T09:18:47;23.50;59.20
63017;DHT22;50274;45.640;11.756;2023-10-08T09:21:18;23.70;58.90
63017;DHT22;50274;45.640;11.756;2023-10-08T09:23:49;23.80;58.60
63017;DHT22;50274;45.640;11.756;2023-10-08T09:26:23;23.90;58.50
63017;DHT22;50274;45.640;11.756;2023-10-08T09:28:49;24.00;57.20
63017;DHT22;50274;45.640;11.756;2023-10-08T09:31:17;24.20;57.20
63017;DHT22;50274;45.640;11.756;2023-10-08T09:33:53;24.30;57.40
63017;DHT22;50274;45.640;11.756;2023-10-08T09:36:19;24.40;56.90
63017;DHT22;50274;45.640;11.756;2023-10-08T09:38:46;24.60;56.60
63017;DHT22;50274;45.640;11.756;2023-10-08T09:41:16;24.70;56.30
63017;DHT22;50274;45.640;11.756;2023-10-08T09:43:45;24.80;55.80
63017;DHT22;50274;45.640;11.756;2023-10-08T09:46:16;24.90;55.70
63017;DHT22;50274;45.640;11.756;2023-10-08T09:48:50;25.10;55.70
63017;DHT22;50274;45.640;11.756;2023-10-08T09:51:19;25.10;55.20
63017;DHT22;50274;45.640;11.756;2023-10-08T09:54:03;25.30;55.00
63017;DHT22;50274;45.640;11.756;2023-10-08T09:56:31;25.40;54.40
63017;DHT22;50274;45.640;11.756;2023-10-08T09:58:57;25.40;52.50
63017;DHT22;50274;45.640;11.756;2023-10-08T10:01:25;25.50;52.80
63017;DHT22;50274;45.640;11.756;2023-10-08T10:03:52;25.60;53.10
63017;DHT22;50274;45.640;11.756;2023-10-08T10:06:19;25.80;53.10
63017;DHT22;50274;45.640;11.756;2023-10-08T10:08:45;25.90;52.70
63017;DHT22;50274;45.640;11.756;2023-10-08T10:11:13;26.10;52.40
63017;DHT22;50274;45.640;11.756;2023-10-08T10:13:41;26.20;52.30
63017;DHT22;50274;45.640;11.756;2023-10-08T10:16:08;26.30;52.20
63017;DHT22;50274;45.640;11.756;2023-10-08T10:18:35;26.50;52.10
63017;DHT22;50274;45.640;11.756;2023-10-08T10:23:39;26.80;51.60
63017;DHT22;50274;45.640;11.756;2023-10-08T10:26:36;27.00;51.70
63017;DHT22;50274;45.640;11.756;2023-10-08T10:31:49;27.30;51.10
63017;DHT22;50274;45.640;11.756;2023-10-08T10:34:23;27.60;51.00
63017;DHT22;50274;45.640;11.756;2023-10-08T10:36:57;27.70;50.60
63017;DHT22;50274;45.640;11.756;2023-10-08T10:39:34;27.80;50.20
63017;DHT22;50274;45.640;11.756;2023-10-08T10:42:06;28.00;49.50
63017;DHT22;50274;45.640;11.756;2023-10-08T10:44:44;28.10;49.20
63017;DHT22;50274;45.640;11.756;2023-10-08T10:47:10;28.30;49.00
63017;DHT22;50274;45.640;11.756;2023-10-08T10:49:56;28.50;48.60
63017;DHT22;50274;45.640;11.756;2023-10-08T10:52:57;28.60;48.30
63017;DHT22;50274;45.640;11.756;2023-10-08T10:55:23;28.80;47.90
63017;DHT22;50274;45.640;11.756;2023-10-08T10:57:57;28.90;47.70
63017;DHT22;50274;45.640;11.756;2023-10-08T11:00:44;28.90;47.50
63017;DHT22;50274;45.640;11.756;2023-10-08T11:03:16;29.10;47.80
63017;DHT22;50274;45.640;11.756;2023-10-08T11:05:44;29.20;47.70
63017;DHT22;50274;45.640;11.756;2023-10-08T11:08:14;29.40;47.40
63017;DHT22;50274;45.640;11.756;2023-10-08T11:10:42;29.50;46.70
63017;DHT22;50274;45.640;11.756;2023-10-08T11:13:23;29.70;46.60
63017;DHT22;50274;45.640;11.756;2023-10-08T11:15:54;29.80;46.00
63017;DHT22;50274;45.640;11.756;2023-10-08T11:18:25;29.90;45.60
63017;DHT22;50274;45.640;11.756;2023-10-08T11:20:53;30.00;45.30
63017;DHT22;50274;45.640;11.756;2023-10-08T11:23:49;30.10;45.30
63017;DHT22;50274;45.640;11.756;2023-10-08T11:26:20;30.30;45.50
63017;DHT22;50274;45.640;11.756;2023-10-08T11:28:59;30.40;45.00
63017;DHT22;50274;45.640;11.756;2023-10-08T11:31:29;30.50;43.40
63017;DHT22;50274;45.640;11.756;2023-10-08T11:34:00;30.50;42.70
63017;DHT22;50274;45.640;11.756;2023-10-08T11:36:28;30.60;42.80
63017;DHT22;50274;45.640;11.756;2023-10-08T11:38:55;30.60;43.10
63017;DHT22;50274;45.640;11.756;2023-10-08T11:41:28;30.40;43.00
63017;DHT22;50274;45.640;11.756;2023-10-08T11:43:56;30.30;43.80
63017;DHT22;50274;45.640;11.756;2023-10-08T11:46:28;30.40;44.20
63017;DHT22;50274;45.640;11.756;2023-10-08T11:49:07;30.40;43.80
63017;DHT22;50274;45.640;11.756;2023-10-08T11:51:34;30.60;43.70
63017;DHT22;50274;45.640;11.756;2023-10-08T11:54:04;30.70;43.10
63017;DHT22;50274;45.640;11.756;2023-10-08T11:56:38;30.90;43.30
63017;DHT22;50274;45.640;11.756;2023-10-08T11:59:04;31.00;42.70
63017;DHT22;50274;45.640;11.756;2023-10-08T12:01:37;31.00;43.00
63017;DHT22;50274;45.640;11.756;2023-10-08T12:04:11;31.10;42.80
63017;DHT22;50274;45.640;11.756;2023-10-08T12:06:42;31.20;42.70
63017;DHT22;50274;45.640;11.756;2023-10-08T12:09:13;31.30;42.50
63017;DHT22;50274;45.640;11.756;2023-10-08T12:11:40;31.30;41.80
63017;DHT22;50274;45.640;11.756;2023-10-08T12:14:06;31.40;42.00
63017;DHT22;50274;45.640;11.756;2023-10-08T12:16:32;31.10;40.70
63017;DHT22;50274;45.640;11.756;2023-10-08T12:19:02;31.10;41.20
63017;DHT22;50274;45.640;11.756;2023-10-08T12:21:38;31.20;41.70
63017;DHT22;50274;45.640;11.756;2023-10-08T12:24:04;31.20;41.80
63017;DHT22;50274;45.640;11.756;2023-10-08T12:26:31;31.30;41.60
63017;DHT22;50274;45.640;11.756;2023-10-08T12:28:57;31.40;41.90
63017;DHT22;50274;45.640;11.756;2023-10-08T12:31:23;31.50;41.50
63017;DHT22;50274;45.640;11.756;2023-10-08T12:33:50;31.50;41.30
63017;DHT22;50274;45.640;11.756;2023-10-08T12:36:23;31.60;41.60
63017;DHT22;50274;45.640;11.756;2023-10-08T12:38:49;31.70;41.30
63017;DHT22;50274;45.640;11.756;2023-10-08T12:41:25;31.60;41.00
63017;DHT22;50274;45.640;11.756;2023-10-08T12:43:54;31.40;41.30
63017;DHT22;50274;45.640;11.756;2023-10-08T12:46:21;31.40;41.40
63017;DHT22;50274;45.640;11.756;2023-10-08T12:48:51;31.40;41.40
63017;DHT22;50274;45.640;11.756;2023-10-08T12:51:21;31.40;40.80
63017;DHT22;50274;45.640;11.756;2023-10-08T12:53:52;31.50;40.80
63017;DHT22;50274;45.640;11.756;2023-10-08T12:56:26;31.50;40.50
63017;DHT22;50274;45.640;11.756;2023-10-08T12:59:01;31.50;40.00
63017;DHT22;50274;45.640;11.756;2023-10-08T13:01:32;31.30;39.50
63017;DHT22;50274;45.640;11.756;2023-10-08T13:04:01;31.30;40.20
63017;DHT22;50274;45.640;11.756;2023-10-08T13:06:33;31.30;40.40
63017;DHT22;50274;45.640;11.756;2023-10-08T13:09:03;31.40;40.30
63017;DHT22;50274;45.640;11.756;2023-10-08T13:11:35;31.50;40.50
63017;DHT22;50274;45.640;11.756;2023-10-08T13:14:04;31.60;40.30
63017;DHT22;50274;45.640;11.756;2023-10-08T13:16:30;31.60;40.00
63017;DHT22;50274;45.640;11.756;2023-10-08T13:19:03;31.80;40.10
63017;DHT22;50274;45.640;11.756;2023-10-08T13:21:29;31.80;40.20
63017;DHT22;50274;45.640;11.756;2023-10-08T13:23:57;32.00;40.00
63017;DHT22;50274;45.640;11.756;2023-10-08T13:26:26;32.00;40.00
63017;DHT22;50274;45.640;11.756;2023-10-08T13:28:59;32.00;40.00
63017;DHT22;50274;45.640;11.756;2023-10-08T13:31:26;32.10;40.10
63017;DHT22;50274;45.640;11.756;2023-10-08T13:33:52;32.00;39.60
63017;DHT22;50274;45.640;11.756;2023-10-08T13:36:22;31.90;39.60
63017;DHT22;50274;45.640;11.756;2023-10-08T13:38:49;31.80;39.60
63017;DHT22;50274;45.640;11.756;2023-10-08T13:41:15;31.70;39.90
63017;DHT22;50274;45.640;11.756;2023-10-08T13:43:42;31.70;40.20
63017;DHT22;50274;45.640;11.756;2023-10-08T13:46:13;31.60;40.10
63017;DHT22;50274;45.640;11.756;2023-10-08T13:48:43;31.60;40.40
63017;DHT22;50274;45.640;11.756;2023-10-08T13:51:12;31.60;40.30
63017;DHT22;50274;45.640;11.756;2023-10-08T13:53:53;31.50;40.30
63017;DHT22;50274;45.640;11.756;2023-10-08T13:56:22;31.40;40.60
63017;DHT22;50274;45.640;11.756;2023-10-08T13:58:53;31.30;40.70
63017;DHT22;50274;45.640;11.756;2023-10-08T14:01:29;31.20;41.00
63017;DHT22;50274;45.640;11.756;2023-10-08T14:03:59;31.20;41.20
63017;DHT22;50274;45.640;11.756;2023-10-08T14:06:31;31.10;41.50
63017;DHT22;50274;45.640;11.756;2023-10-08T14:08:57;31.10;41.80
63017;DHT22;50274;45.640;11.756;2023-10-08T14:11:23;31.10;41.90
63017;DHT22;50274;45.640;11.756;2023-10-08T14:13:56;31.10;41.60
63017;DHT22;50274;45.640;11.756;2023-10-08T14:16:22;31.00;41.80
63017;DHT22;50274;45.640;11.756;2023-10-08T14:18:55;30.90;42.10
63017;DHT22;50274;45.640;11.756;2023-10-08T14:21:24;30.80;42.60
63017;DHT22;50274;45.640;11.756;2023-10-08T14:23:50;30.70;43.00
63017;DHT22;50274;45.640;11.756;2023-10-08T14:26:22;30.60;43.30
63017;DHT22;50274;45.640;11.756;2023-10-08T14:28:49;30.50;43.60
63017;DHT22;50274;45.640;11.756;2023-10-08T14:31:24;30.40;43.80
63017;DHT22;50274;45.640;11.756;2023-10-08T14:33:52;30.20;43.80
63017;DHT22;50274;45.640;11.756;2023-10-08T14:36:24;30.10;43.90
63017;DHT22;50274;45.640;11.756;2023-10-08T14:39:09;29.80;44.30
63017;DHT22;50274;45.640;11.756;2023-10-08T14:41:54;29.60;44.80
63017;DHT22;50274;45.640;11.756;2023-10-08T14:44:38;29.40;45.20
63017;DHT22;50274;45.640;11.756;2023-10-08T14:47:05;29.30;45.50
63017;DHT22;50274;45.640;11.756;2023-10-08T14:49:31;29.10;45.80
63017;DHT22;50274;45.640;11.756;2023-10-08T14:51:58;29.00;46.10
63017;DHT22;50274;45.640;11.756;2023-10-08T14:54:24;28.80;46.50
63017;DHT22;50274;45.640;11.756;2023-10-08T14:56:51;28.70;46.90
63017;DHT22;50274;45.640;11.756;2023-10-08T14:59:17;28.50;47.30
63017;DHT22;50274;45.640;11.756;2023-10-08T15:01:44;28.40;47.60
63017;DHT22;50274;45.640;11.756;2023-10-08T15:04:10;28.30;47.90
63017;DHT22;50274;45.640;11.756;2023-10-08T15:06:37;28.10;48.40
63017;DHT22;50274;45.640;11.756;2023-10-08T15:09:05;28.10;48.60
63017;DHT22;50274;45.640;11.756;2023-10-08T15:11:33;28.00;48.80
63017;DHT22;50274;45.640;11.756;2023-10-08T15:14:02;27.90;49.00
63017;DHT22;50274;45.640;11.756;2023-10-08T15:16:36;27.80;49.40
63017;DHT22;50274;45.640;11.756;2023-10-08T15:19:03;27.70;49.90
63017;DHT22;50274;45.640;11.756;2023-10-08T15:21:30;27.60;50.30
63017;DHT22;50274;45.640;11.756;2023-10-08T15:23:59;27.60;50.60
63017;DHT22;50274;45.640;11.756;2023-10-08T15:26:36;27.50;50.80
63017;DHT22;50274;45.640;11.756;2023-10-08T15:29:02;27.30;51.10
63017;DHT22;50274;45.640;11.756;2023-10-08T15:31:28;27.40;51.30
63017;DHT22;50274;45.640;11.756;2023-10-08T15:33:54;27.30;51.50
63017;DHT22;50274;45.640;11.756;2023-10-08T15:36:20;27.30;51.50
63017;DHT22;50274;45.640;11.756;2023-10-08T15:38:46;27.30;51.60
63017;DHT22;50274;45.640;11.756;2023-10-08T15:41:12;27.20;51.60
63017;DHT22;50274;45.640;11.756;2023-10-08T15:43:39;27.20;51.80
63017;DHT22;50274;45.640;11.756;2023-10-08T15:46:07;27.10;52.00